createdAt,value
2023-03-17T00:02:07.630Z,11.22
2023-03-17T00:04:37.170Z,11.20
2023-03-17T00:07:07.126Z,11.25
2023-03-17T00:09:35.291Z,11.30
2023-03-17T00:12:03.851Z,11.34
2023-03-17T00:14:31.985Z,11.30
2023-03-17T00:17:00.234Z,11.29
2023-03-17T00:19:31.486Z,11.26
2023-03-17T00:22:02.071Z,11.23
2023-03-17T00:24:31.225Z,11.23
2023-03-17T00:26:59.951Z,11.26
2023-03-17T00:29:28.170Z,11.25
2023-03-17T00:31:59.021Z,11.27
2023-03-17T00:34:27.367Z,11.28
2023-03-17T00:36:56.239Z,11.29
2023-03-17T00:39:27.281Z,11.29
2023-03-17T00:41:55.409Z,11.24
2023-03-17T00:44:24.287Z,11.24
2023-03-17T00:46:52.720Z,11.27
2023-03-17T00:49:23.554Z,11.31
2023-03-17T00:51:52.277Z,11.32
2023-03-17T00:54:21.948Z,11.32
2023-03-17T00:56:53.346Z,11.29
2023-03-17T00:59:26.190Z,11.26
2023-03-17T01:01:55.521Z,11.24
2023-03-17T01:04:24.303Z,11.24
2023-03-17T01:06:53.366Z,11.23
2023-03-17T01:09:26.593Z,11.21
2023-03-17T01:11:56.691Z,11.20
2023-03-17T01:14:25.994Z,11.15
2023-03-17T01:16:55.228Z,11.09
2023-03-17T01:19:23.867Z,11.03
2023-03-17T01:21:52.400Z,10.97
2023-03-17T01:24:21.152Z,10.93
2023-03-17T01:26:49.310Z,10.91
2023-03-17T01:29:18.975Z,10.91
2023-03-17T01:31:47.795Z,10.89
2023-03-17T01:34:16.041Z,10.88
2023-03-17T01:36:44.478Z,10.89
2023-03-17T01:39:13.057Z,10.88
2023-03-17T01:41:41.492Z,10.88
2023-03-17T01:44:17.015Z,10.86
2023-03-17T01:46:47.595Z,10.83
2023-03-17T01:49:27.926Z,10.77
2023-03-17T01:52:03.014Z,10.78
2023-03-17T01:54:37.324Z,10.73
2023-03-17T01:57:14.305Z,10.70
2023-03-17T01:59:47.745Z,10.64
2023-03-17T02:02:20.681Z,10.62
2023-03-17T02:04:49.526Z,10.61
2023-03-17T02:07:17.700Z,10.63
2023-03-17T02:09:46.190Z,10.61
2023-03-17T02:12:15.652Z,10.58
2023-03-17T02:14:44.220Z,10.60
2023-03-17T02:17:13.033Z,10.60
2023-03-17T02:19:42.635Z,10.63
2023-03-17T02:22:12.556Z,10.65
2023-03-17T02:24:44.434Z,10.70
2023-03-17T02:27:17.456Z,10.73
2023-03-17T02:29:47.365Z,10.73
2023-03-17T02:32:17.858Z,10.72
2023-03-17T02:34:47.162Z,10.68
2023-03-17T02:37:17.677Z,10.65
2023-03-17T02:39:46.682Z,10.61
2023-03-17T02:42:15.312Z,10.60
2023-03-17T02:44:43.754Z,10.61
2023-03-17T02:47:12.191Z,10.61
2023-03-17T02:49:41.922Z,10.63
2023-03-17T02:52:10.368Z,10.58
2023-03-17T02:54:40.511Z,10.59
2023-03-17T02:57:08.887Z,10.57
2023-03-17T02:59:38.572Z,10.57
2023-03-17T03:02:07.060Z,10.56
2023-03-17T03:04:36.031Z,10.56
2023-03-17T03:07:04.193Z,10.55
2023-03-17T03:09:32.422Z,10.57
2023-03-17T03:12:01.967Z,10.55
2023-03-17T03:14:30.199Z,10.56
2023-03-17T03:16:58.654Z,10.57
2023-03-17T03:19:26.823Z,10.54
2023-03-17T03:21:55.061Z,10.51
2023-03-17T03:24:23.221Z,10.53
2023-03-17T03:26:51.933Z,10.53
2023-03-17T03:29:21.400Z,10.51
2023-03-17T03:31:49.628Z,10.49
2023-03-17T03:34:17.791Z,10.49
2023-03-17T03:36:46.021Z,10.49
2023-03-17T03:39:14.609Z,10.47
2023-03-17T03:41:42.884Z,10.44
2023-03-17T03:44:11.107Z,10.43
2023-03-17T03:46:40.823Z,10.42
2023-03-17T03:49:09.127Z,10.39
2023-03-17T03:51:37.784Z,10.38
2023-03-17T03:54:05.973Z,10.41
2023-03-17T03:56:34.437Z,10.38
2023-03-17T03:59:02.648Z,10.37
2023-03-17T04:01:30.741Z,10.38
2023-03-17T04:04:00.362Z,10.40
2023-03-17T04:06:28.738Z,10.38
2023-03-17T04:08:58.313Z,10.36
2023-03-17T04:11:26.545Z,10.35
2023-03-17T04:13:54.694Z,10.37
2023-03-17T04:16:23.046Z,10.40
2023-03-17T04:18:51.318Z,10.44
2023-03-17T04:21:21.651Z,10.49
2023-03-17T04:23:49.937Z,10.51
2023-03-17T04:26:19.257Z,10.54
2023-03-17T04:28:47.810Z,10.54
2023-03-17T04:31:16.417Z,10.59
2023-03-17T04:33:44.666Z,10.56
2023-03-17T04:36:19.525Z,10.53
2023-03-17T04:38:49.283Z,10.53
2023-03-17T04:41:17.831Z,10.56
2023-03-17T04:43:46.280Z,10.56
2023-03-17T04:46:15.134Z,10.55
2023-03-17T04:48:43.438Z,10.52
2023-03-17T04:51:12.246Z,10.56
2023-03-17T04:53:40.528Z,10.59
2023-03-17T04:56:10.306Z,10.63
2023-03-17T04:58:38.420Z,10.68
2023-03-17T05:01:07.574Z,10.70
2023-03-17T05:03:36.316Z,10.74
2023-03-17T05:06:06.223Z,10.74
2023-03-17T05:08:34.481Z,10.73
2023-03-17T05:11:03.224Z,10.75
2023-03-17T05:13:32.947Z,10.71
2023-03-17T05:16:01.608Z,10.69
2023-03-17T05:18:29.883Z,10.65
2023-03-17T05:20:57.964Z,10.67
2023-03-17T05:23:26.339Z,10.67
2023-03-17T05:25:54.852Z,10.67
2023-03-17T05:28:23.428Z,10.64
2023-03-17T05:30:53.084Z,10.64
2023-03-17T05:33:21.863Z,10.65
2023-03-17T05:35:50.272Z,10.67
2023-03-17T05:38:18.898Z,10.67
2023-03-17T05:40:48.558Z,10.64
2023-03-17T05:43:16.921Z,10.66
2023-03-17T05:45:45.682Z,10.70
2023-03-17T05:48:15.200Z,10.62
2023-03-17T05:50:43.721Z,10.61
2023-03-17T05:53:12.258Z,10.62
2023-03-17T05:55:40.623Z,10.58
2023-03-17T05:58:09.686Z,10.60
2023-03-17T06:00:38.096Z,10.56
2023-03-17T06:03:06.496Z,10.55
2023-03-17T06:05:36.830Z,10.54
2023-03-17T06:08:05.887Z,10.48
2023-03-17T06:10:34.452Z,10.48
2023-03-17T06:13:03.971Z,10.55
2023-03-17T06:15:33.986Z,10.55
2023-03-17T06:18:02.670Z,10.49
2023-03-17T06:20:31.310Z,10.49
2023-03-17T06:23:05.025Z,10.48
2023-03-17T06:25:34.801Z,10.47
2023-03-17T06:28:04.036Z,10.46
2023-03-17T06:30:32.957Z,10.46
2023-03-17T06:33:01.700Z,10.47
2023-03-17T06:35:30.302Z,10.50
2023-03-17T06:38:01.019Z,10.47
2023-03-17T06:40:29.617Z,10.41
2023-03-17T06:42:58.290Z,10.39
2023-03-17T06:45:26.887Z,10.45
2023-03-17T06:47:55.189Z,10.51
2023-03-17T06:50:23.367Z,10.50
2023-03-17T06:52:51.618Z,10.45
2023-03-17T06:55:21.621Z,10.48
2023-03-17T06:57:51.184Z,10.49
2023-03-17T07:00:21.195Z,10.49
2023-03-17T07:02:49.788Z,10.54
2023-03-17T07:05:18.654Z,10.55
2023-03-17T07:07:47.295Z,10.55
2023-03-17T07:10:16.023Z,10.48
2023-03-17T07:12:45.883Z,10.47
2023-03-17T07:15:14.165Z,10.46
2023-03-17T07:17:42.701Z,10.42
2023-03-17T07:20:12.036Z,10.41
2023-03-17T07:22:40.315Z,10.41
2023-03-17T07:25:09.831Z,10.40
2023-03-17T07:27:38.207Z,10.42
2023-03-17T07:30:09.758Z,10.42
2023-03-17T07:32:37.797Z,10.40
2023-03-17T07:35:08.268Z,10.38
2023-03-17T07:37:36.589Z,10.37
2023-03-17T07:40:06.396Z,10.39
2023-03-17T07:42:34.692Z,10.35
2023-03-17T07:45:03.838Z,10.34
2023-03-17T07:47:33.607Z,10.38
2023-03-17T07:50:02.179Z,10.42
2023-03-17T07:52:30.751Z,10.48
2023-03-17T07:54:59.549Z,10.49
2023-03-17T07:57:28.842Z,10.54
2023-03-17T07:59:57.019Z,10.60
2023-03-17T08:02:25.365Z,10.67
2023-03-17T08:04:55.213Z,10.71
2023-03-17T08:07:23.348Z,10.83
2023-03-17T08:09:52.704Z,10.81
2023-03-17T08:12:21.304Z,10.79
2023-03-17T08:14:49.459Z,10.88
2023-03-17T08:17:18.083Z,10.93
2023-03-17T08:19:46.221Z,10.99
2023-03-17T08:22:15.716Z,11.02
2023-03-17T08:24:44.460Z,11.07
2023-03-17T08:27:12.897Z,11.14
2023-03-17T08:29:41.123Z,11.24
2023-03-17T08:32:10.067Z,11.33
2023-03-17T08:34:38.579Z,11.40
2023-03-17T08:37:10.043Z,11.49
2023-03-17T08:39:41.042Z,11.57
2023-03-17T08:42:09.240Z,11.60
2023-03-17T08:44:37.380Z,11.69
2023-03-17T08:47:05.827Z,11.77
2023-03-17T08:49:36.664Z,11.92
2023-03-17T08:52:05.345Z,12.09
2023-03-17T08:54:35.913Z,12.12
2023-03-17T08:57:05.741Z,12.17
2023-03-17T08:59:34.444Z,12.16
2023-03-17T09:02:02.757Z,12.18
2023-03-17T09:04:32.589Z,12.24
2023-03-17T09:07:03.999Z,12.23
2023-03-17T09:09:32.865Z,12.26
2023-03-17T09:12:01.111Z,12.27
2023-03-17T09:14:40.103Z,12.20
2023-03-17T09:17:12.248Z,12.24
2023-03-17T09:19:40.590Z,12.22
2023-03-17T09:22:09.219Z,12.21
2023-03-17T09:24:37.462Z,12.24
2023-03-17T09:27:05.851Z,12.27
2023-03-17T09:29:35.838Z,12.27
2023-03-17T09:32:04.213Z,12.28
2023-03-17T09:34:32.873Z,12.27
2023-03-17T09:37:00.999Z,12.24
2023-03-17T09:39:29.244Z,12.23
2023-03-17T09:42:10.240Z,12.20
2023-03-17T09:44:59.482Z,12.20
2023-03-17T09:47:52.595Z,12.22
2023-03-17T09:50:26.724Z,12.18
2023-03-17T09:52:58.617Z,12.13
2023-03-17T09:55:30.580Z,12.10
2023-03-17T09:58:01.024Z,12.08
2023-03-17T10:00:31.383Z,12.05
2023-03-17T10:03:00.424Z,11.99
2023-03-17T10:05:31.225Z,11.94
2023-03-17T10:08:28.938Z,11.90
2023-03-17T10:11:04.397Z,11.90
2023-03-17T10:13:49.329Z,11.86
2023-03-17T10:16:20.922Z,11.91
2023-03-17T10:18:53.257Z,11.80
2023-03-17T10:21:27.164Z,11.84
2023-03-17T10:23:57.490Z,11.88
2023-03-17T10:26:32.995Z,11.92
2023-03-17T10:29:04.182Z,11.90
2023-03-17T10:31:35.790Z,11.97
2023-03-17T10:34:13.819Z,11.97
2023-03-17T10:36:44.681Z,12.01
2023-03-17T10:39:15.665Z,12.03
2023-03-17T10:41:54.148Z,12.05
2023-03-17T10:44:24.838Z,12.02
2023-03-17T10:46:58.299Z,12.00
2023-03-17T10:49:26.871Z,12.00
2023-03-17T10:51:55.804Z,11.99
2023-03-17T10:54:26.590Z,12.00
2023-03-17T10:57:02.642Z,11.98
2023-03-17T10:59:33.302Z,11.98
2023-03-17T11:02:16.922Z,11.96
2023-03-17T11:04:45.055Z,11.94
2023-03-17T11:07:18.690Z,11.91
2023-03-17T11:09:50.800Z,11.87
2023-03-17T11:12:26.564Z,11.89
2023-03-17T11:14:59.393Z,11.90
2023-03-17T11:17:40.177Z,11.92
2023-03-17T11:20:39.661Z,11.89
2023-03-17T11:23:16.263Z,11.90
2023-03-17T11:25:47.651Z,11.92
2023-03-17T11:28:20.862Z,11.93
2023-03-17T11:31:03.792Z,11.94
2023-03-17T11:33:43.901Z,11.88
2023-03-17T11:36:28.579Z,11.84
2023-03-17T11:39:02.328Z,11.86
2023-03-17T11:41:51.815Z,11.84
2023-03-17T11:44:56.309Z,11.82
2023-03-17T11:47:39.824Z,11.83
2023-03-17T11:50:22.351Z,11.86
2023-03-17T11:52:57.959Z,11.86
2023-03-17T11:55:33.049Z,11.92
2023-03-17T11:58:05.663Z,11.96
2023-03-17T12:00:35.696Z,11.89
2023-03-17T12:03:15.779Z,11.85
2023-03-17T12:05:48.939Z,11.81
2023-03-17T12:08:25.907Z,11.76
2023-03-17T12:10:56.651Z,11.73
2023-03-17T12:13:29.906Z,11.85
2023-03-17T12:16:04.499Z,11.76
2023-03-17T12:18:38.353Z,11.87
2023-03-17T12:21:14.771Z,11.90
2023-03-17T12:23:49.668Z,11.83
2023-03-17T12:26:20.415Z,11.83
2023-03-17T12:28:55.211Z,11.86
2023-03-17T12:31:30.214Z,11.89
2023-03-17T12:34:05.106Z,11.94
2023-03-17T12:36:36.812Z,11.93
2023-03-17T12:39:10.720Z,11.93
2023-03-17T12:41:51.065Z,11.95
2023-03-17T12:44:34.489Z,11.86
2023-03-17T12:47:17.371Z,11.88
2023-03-17T12:50:07.551Z,11.91
2023-03-17T12:53:00.597Z,11.91
2023-03-17T12:55:32.410Z,11.95
2023-03-17T12:58:03.606Z,12.03
2023-03-17T13:00:35.200Z,12.11
2023-03-17T13:03:18.574Z,12.20
2023-03-17T13:05:50.846Z,12.22
2023-03-17T13:08:28.279Z,12.23
2023-03-17T13:11:19.060Z,12.26
2023-03-17T13:13:59.303Z,12.33
2023-03-17T13:16:32.262Z,12.30
2023-03-17T13:19:26.951Z,12.26
2023-03-17T13:22:35.086Z,12.38
2023-03-17T13:25:16.709Z,12.44
2023-03-17T13:27:46.157Z,12.52
2023-03-17T13:30:58.557Z,12.62
2023-03-17T13:33:33.025Z,12.71
2023-03-17T13:36:10.861Z,12.73
2023-03-17T13:39:05.133Z,12.73
2023-03-17T13:41:52.113Z,12.75
2023-03-17T13:44:35.549Z,12.69
2023-03-17T13:47:27.331Z,12.65
2023-03-17T13:50:01.317Z,12.69
2023-03-17T13:52:34.550Z,12.67
2023-03-17T13:55:29.507Z,12.70
2023-03-17T13:58:33.379Z,12.62
2023-03-17T14:01:06.809Z,12.53
2023-03-17T14:03:41.984Z,12.53
2023-03-17T14:06:13.514Z,12.59
2023-03-17T14:08:45.268Z,12.68
2023-03-17T14:11:24.114Z,12.76
2023-03-17T14:14:04.858Z,12.70
2023-03-17T14:16:35.930Z,12.73
2023-03-17T14:19:13.224Z,12.76
2023-03-17T14:21:41.587Z,12.81
2023-03-17T14:24:20.821Z,12.76
2023-03-17T14:26:51.181Z,12.76
2023-03-17T14:29:22.334Z,12.79
2023-03-17T14:31:54.132Z,12.85
2023-03-17T14:34:23.394Z,12.90
2023-03-17T14:36:53.245Z,12.95
2023-03-17T14:39:24.666Z,12.98
2023-03-17T14:42:02.341Z,12.97
2023-03-17T14:44:38.864Z,13.02
2023-03-17T14:47:14.132Z,13.02
2023-03-17T14:49:42.344Z,12.96
2023-03-17T14:52:20.592Z,12.90
2023-03-17T14:54:53.651Z,12.86
2023-03-17T14:57:29.179Z,12.81
2023-03-17T14:59:59.130Z,12.79
2023-03-17T15:02:34.563Z,12.72
2023-03-17T15:05:07.956Z,12.67
2023-03-17T15:07:39.906Z,12.59
2023-03-17T15:10:16.618Z,12.58
2023-03-17T15:12:47.405Z,12.58
2023-03-17T15:15:23.376Z,12.52
2023-03-17T15:17:58.155Z,12.53
2023-03-17T15:20:27.115Z,12.58
2023-03-17T15:23:00.131Z,12.59
2023-03-17T15:25:35.429Z,12.52
2023-03-17T15:28:12.218Z,12.52
2023-03-17T15:30:47.516Z,12.49
2023-03-17T15:33:22.413Z,12.46
2023-03-17T15:35:51.843Z,12.39
2023-03-17T15:38:20.024Z,12.37
2023-03-17T15:40:48.206Z,12.33
2023-03-17T15:43:19.149Z,12.36
2023-03-17T15:45:47.559Z,12.37
2023-03-17T15:48:21.498Z,12.36
2023-03-17T15:50:50.113Z,12.46
2023-03-17T15:53:18.346Z,12.50
2023-03-17T15:55:47.284Z,12.58
2023-03-17T15:58:15.822Z,12.59
2023-03-17T16:00:46.507Z,12.62
2023-03-17T16:03:20.159Z,12.56
2023-03-17T16:05:48.313Z,12.56
2023-03-17T16:08:18.006Z,12.55
2023-03-17T16:10:46.927Z,12.52
2023-03-17T16:13:15.187Z,12.51
2023-03-17T16:15:48.460Z,12.54
2023-03-17T16:18:19.621Z,12.54
2023-03-17T16:20:50.919Z,12.52
2023-03-17T16:23:21.377Z,12.57
2023-03-17T16:25:50.464Z,12.63
2023-03-17T16:28:20.420Z,12.67
2023-03-17T16:30:51.569Z,12.71
2023-03-17T16:33:22.281Z,12.76
2023-03-17T16:35:52.467Z,12.86
2023-03-17T16:38:24.418Z,12.90
2023-03-17T16:40:55.086Z,12.90
2023-03-17T16:43:26.927Z,12.93
2023-03-17T16:45:59.482Z,12.95
2023-03-17T16:48:28.676Z,12.97
2023-03-17T16:50:57.741Z,13.01
2023-03-17T16:53:26.320Z,12.99
2023-03-17T16:55:55.774Z,12.96
2023-03-17T16:58:26.081Z,12.89
2023-03-17T17:00:58.751Z,12.84
2023-03-17T17:03:27.237Z,12.78
2023-03-17T17:05:55.454Z,12.73
2023-03-17T17:08:23.492Z,12.71
2023-03-17T17:10:52.340Z,12.73
2023-03-17T17:13:20.610Z,12.73
2023-03-17T17:15:49.025Z,12.70
2023-03-17T17:18:21.867Z,12.71
2023-03-17T17:20:50.745Z,12.69
2023-03-17T17:23:22.499Z,12.62
2023-03-17T17:25:51.523Z,12.60
2023-03-17T17:28:22.490Z,12.57
2023-03-17T17:30:51.764Z,12.48
2023-03-17T17:33:22.240Z,12.44
2023-03-17T17:35:51.322Z,12.38
2023-03-17T17:38:22.972Z,12.28
2023-03-17T17:40:51.383Z,12.22
2023-03-17T17:43:19.555Z,12.17
2023-03-17T17:45:49.880Z,12.09
2023-03-17T17:48:19.687Z,12.05
2023-03-17T17:50:49.733Z,12.01
2023-03-17T17:53:18.145Z,11.98
2023-03-17T17:55:48.820Z,11.97
2023-03-17T17:58:19.636Z,11.95
2023-03-17T18:00:48.402Z,11.98
2023-03-17T18:03:16.848Z,11.97
2023-03-17T18:05:44.957Z,11.90
2023-03-17T18:08:15.967Z,11.84
2023-03-17T18:10:44.216Z,11.84
2023-03-17T18:13:12.500Z,11.88
2023-03-17T18:15:40.848Z,11.85
2023-03-17T18:18:09.113Z,11.83
2023-03-17T18:20:37.251Z,11.84
2023-03-17T18:23:05.531Z,11.84
2023-03-17T18:25:35.164Z,11.83
2023-03-17T18:28:03.484Z,11.84
2023-03-17T18:30:35.056Z,11.82
2023-03-17T18:33:07.769Z,11.83
2023-03-17T18:35:36.786Z,11.83
2023-03-17T18:38:05.183Z,11.75
2023-03-17T18:40:34.933Z,11.72
2023-03-17T18:43:03.155Z,11.69
2023-03-17T18:45:31.394Z,11.62
2023-03-17T18:47:59.644Z,11.61
2023-03-17T18:50:27.772Z,11.58
2023-03-17T18:52:56.110Z,11.59
2023-03-17T18:55:24.378Z,11.56
2023-03-17T18:57:54.583Z,11.55
2023-03-17T19:00:25.405Z,11.52
2023-03-17T19:02:53.947Z,11.53
2023-03-17T19:05:22.324Z,11.54
2023-03-17T19:07:50.522Z,11.52
2023-03-17T19:10:19.503Z,11.54
2023-03-17T19:12:47.992Z,11.54
2023-03-17T19:15:17.792Z,11.52
2023-03-17T19:17:45.896Z,11.50
2023-03-17T19:20:15.714Z,11.53
2023-03-17T19:22:43.754Z,11.47
2023-03-17T19:25:30.538Z,11.45
2023-03-17T19:27:59.206Z,11.41
2023-03-17T19:30:28.769Z,11.42
2023-03-17T19:32:56.999Z,11.43
2023-03-17T19:35:25.145Z,11.40
2023-03-17T19:37:53.181Z,11.40
2023-03-17T19:40:22.510Z,11.38
2023-03-17T19:42:50.586Z,11.32
2023-03-17T19:45:19.173Z,11.27
2023-03-17T19:47:49.103Z,11.24
2023-03-17T19:50:17.567Z,11.13
2023-03-17T19:52:46.064Z,11.06
2023-03-17T19:55:14.198Z,11.07
2023-03-17T19:57:42.394Z,11.00
2023-03-17T20:00:12.103Z,11.09
2023-03-17T20:02:40.517Z,11.04
2023-03-17T20:05:10.505Z,11.05
2023-03-17T20:07:40.750Z,11.06
2023-03-17T20:10:10.899Z,11.08
2023-03-17T20:12:39.512Z,11.07
2023-03-17T20:15:09.102Z,11.09
2023-03-17T20:17:37.666Z,11.09
2023-03-17T20:20:27.614Z,11.10
2023-03-17T20:23:43.404Z,11.10
2023-03-17T20:26:12.896Z,11.11
2023-03-17T20:28:41.081Z,11.12
2023-03-17T20:31:09.548Z,11.12
2023-03-17T20:33:37.828Z,11.14
2023-03-17T20:36:06.658Z,11.14
2023-03-17T20:38:37.009Z,11.12
2023-03-17T20:41:12.557Z,11.13
2023-03-17T20:43:40.866Z,11.12
2023-03-17T20:46:10.194Z,11.15
2023-03-17T20:48:38.922Z,11.16
2023-03-17T20:51:07.250Z,11.19
2023-03-17T20:53:36.293Z,11.20
2023-03-17T20:56:05.011Z,11.20
2023-03-17T20:58:34.595Z,11.20
2023-03-17T21:01:03.452Z,11.18
2023-03-17T21:03:32.481Z,11.15
2023-03-17T21:06:01.002Z,11.12
2023-03-17T21:08:29.137Z,11.07
2023-03-17T21:10:57.397Z,11.09
2023-03-17T21:13:25.478Z,11.12
2023-03-17T21:15:55.546Z,11.14
2023-03-17T21:18:24.456Z,11.11
2023-03-17T21:20:52.679Z,11.13
2023-03-17T21:23:21.013Z,11.17
2023-03-17T21:25:49.290Z,11.20
2023-03-17T21:28:17.467Z,11.23
2023-03-17T21:30:45.687Z,11.23
2023-03-17T21:33:15.557Z,11.24
2023-03-17T21:35:43.697Z,11.26
2023-03-17T21:38:11.994Z,11.29
2023-03-17T21:40:40.603Z,11.29
2023-03-17T21:43:09.069Z,11.30
2023-03-17T21:45:37.254Z,11.30
2023-03-17T21:48:05.827Z,11.30
2023-03-17T21:50:35.595Z,11.30
2023-03-17T21:53:04.730Z,11.31
2023-03-17T21:55:33.229Z,11.31
2023-03-17T21:58:02.489Z,11.32
2023-03-17T22:00:39.413Z,11.32
2023-03-17T22:03:12.855Z,11.25
2023-03-17T22:05:42.477Z,11.19
2023-03-17T22:08:10.605Z,11.18
2023-03-17T22:10:40.457Z,11.19
2023-03-17T22:13:08.756Z,11.20
2023-03-17T22:15:37.228Z,11.17
2023-03-17T22:18:06.095Z,11.13
2023-03-17T22:20:34.583Z,11.12
2023-03-17T22:23:04.217Z,11.12
2023-03-17T22:25:32.342Z,11.08
2023-03-17T22:28:00.537Z,11.03
2023-03-17T22:30:28.988Z,10.98
2023-03-17T22:32:57.604Z,10.96
2023-03-17T22:35:26.072Z,10.93
2023-03-17T22:37:54.194Z,10.91
2023-03-17T22:40:23.730Z,10.88
2023-03-17T22:42:52.122Z,10.89
2023-03-17T22:45:20.280Z,10.89
2023-03-17T22:47:48.520Z,10.86
2023-03-17T22:50:16.798Z,10.88
2023-03-17T22:52:44.912Z,10.89
2023-03-17T22:55:13.113Z,10.91
2023-03-17T22:57:43.500Z,10.95
2023-03-17T23:00:15.368Z,10.97
2023-03-17T23:02:43.990Z,10.98
2023-03-17T23:05:13.593Z,11.01
2023-03-17T23:07:51.566Z,11.00
2023-03-17T23:10:23.172Z,11.01
2023-03-17T23:12:53.233Z,10.96
2023-03-17T23:15:22.009Z,10.97
2023-03-17T23:17:50.192Z,11.00
2023-03-17T23:20:19.158Z,10.99
2023-03-17T23:22:47.749Z,11.00
2023-03-17T23:25:16.380Z,10.94
2023-03-17T23:27:44.740Z,10.95
2023-03-17T23:30:16.258Z,10.99
2023-03-17T23:32:45.115Z,11.03
2023-03-17T23:35:14.277Z,11.03
2023-03-17T23:37:42.863Z,11.06
2023-03-17T23:40:14.009Z,11.08
2023-03-17T23:42:42.494Z,11.08
2023-03-17T23:45:11.943Z,11.07
2023-03-17T23:47:41.647Z,11.06
2023-03-17T23:50:11.559Z,11.05
2023-03-17T23:52:40.480Z,11.04
2023-03-17T23:55:10.119Z,11.06
2023-03-17T23:57:38.602Z,11.06
